Time,TemperatureF,DewpointF,PressureIn,WindDirection,WindDirectionDegrees,WindSpeedMPH,WindSpeedGustMPH,Humidity,HourlyPrecipIn,Conditions,Clouds,dailyrainin,SoftwareType,DateUTC
2013-03-03 00:00:00,25.3,18.9,-100.00,WNW,302,0.0,0.0,76,-99.99,,,0.00,LWC V2.10 B1813,2013-03-03 05:00:00,
2013-03-03 00:05:00,25.3,18.9,-100.00,WNW,302,0.0,0.0,76,-99.99,,,0.00,LWC V2.10 B1813,2013-03-03 05:05:00,
2013-03-03 00:10:00,25.2,18.1,-100.00,WNW,302,0.0,0.0,74,-99.99,,,0.00,LWC V2.10 B1813,2013-03-03 05:10:00,
2013-03-03 00:15:00,25.3,17.6,-100.00,WNW,302,0.0,0.0,72,-99.99,,,0.00,LWC V2.10 B1813,2013-03-03 05:15:00,
2013-03-03 00:20:00,25.3,17.6,-100.00,WNW,302,0.0,0.0,72,-99.99,,,0.00,LWC V2.10 B1813,2013-03-03 05:20:00,
2013-03-03 00:25:00,25.2,17.1,-100.00,WNW,302,0.0,0.0,71,-99.99,,,0.00,LWC V2.10 B1813,2013-03-03 05:25:00,
2013-03-03 00:30:00,25.2,17.1,-100.00,WNW,302,0.0,0.0,71,-99.99,,,0.00,LWC V2.10 B1813,2013-03-03 05:30:00,
2013-03-03 00:35:00,25.2,17.1,-100.00,WNW,302,0.0,0.0,71,-99.99,,,0.00,LWC V2.10 B1813,2013-03-03 05:35:00,
2013-03-03 00:40:00,25.0,16.9,-100.00,WNW,302,0.0,0.0,71,-99.99,,,0.00,LWC V2.10 B1813,2013-03-03 05:40:00,
2013-03-03 00:45:00,25.0,16.9,-100.00,WNW,302,0.0,0.0,71,-99.99,,,0.00,LWC V2.10 B1813,2013-03-03 05:45:00,
2013-03-03 00:50:00,25.0,16.9,-100.00,WNW,302,0.0,0.0,71,-99.99,,,0.00,LWC V2.10 B1813,2013-03-03 05:50:00,
2013-03-03 00:55:00,25.0,17.3,-100.00,WNW,302,0.0,0.0,72,-99.99,,,0.00,LWC V2.10 B1813,2013-03-03 05:55:00,
2013-03-03 01:00:00,25.0,17.3,-100.00,WNW,302,0.0,0.0,72,-99.99,,,0.00,LWC V2.10 B1813,2013-03-03 06:00:00,
2013-03-03 01:05:00,25.0,17.3,-100.00,WNW,302,0.0,0.0,72,-99.99,,,0.00,LWC V2.10 B1813,2013-03-03 06:05:00,
2013-03-03 01:10:00,25.0,17.3,-100.00,WNW,302,0.0,0.0,72,-99.99,,,0.00,LWC V2.10 B1813,2013-03-03 06:10:00,
2013-03-03 01:15:00,25.0,17.6,-100.00,WNW,302,0.0,0.0,73,-99.99,,,0.00,LWC V2.10 B1813,2013-03-03 06:15:00,
2013-03-03 01:20:00,25.0,17.6,-100.00,WNW,302,0.0,0.0,73,-99.99,,,0.00,LWC V2.10 B1813,2013-03-03 06:20:00,
2013-03-03 01:25:00,24.8,17.7,-100.00,WNW,302,0.0,0.0,74,-99.99,,,0.00,LWC V2.10 B1813,2013-03-03 06:25:00,
2013-03-03 01:30:00,25.0,17.6,-100.00,WNW,302,0.0,0.0,73,-99.99,,,0.00,LWC V2.10 B1813,2013-03-03 06:30:00,
2013-03-03 01:35:00,25.0,17.9,-100.00,WNW,302,0.0,0.0,74,-99.99,,,0.00,LWC V2.10 B1813,2013-03-03 06:35:00,
2013-03-03 01:40:00,25.0,17.6,-100.00,WNW,302,0.0,0.0,73,-99.99,,,0.00,LWC V2.10 B1813,2013-03-03 06:40:00,
2013-03-03 01:45:00,25.0,17.6,-100.00,WNW,302,0.0,0.0,73,-99.99,,,0.00,LWC V2.10 B1813,2013-03-03 06:45:00,
2013-03-03 01:50:00,25.0,17.3,-100.00,WNW,302,0.0,0.0,72,-99.99,,,0.00,LWC V2.10 B1813,2013-03-03 06:50:00,
2013-03-03 01:55:00,24.8,16.8,-100.00,WNW,302,0.0,0.0,71,-99.99,,,0.00,LWC V2.10 B1813,2013-03-03 06:55:00,
2013-03-03 02:00:00,24.8,16.8,-100.00,WNW,302,0.0,0.0,71,-99.99,,,0.00,LWC V2.10 B1813,2013-03-03 07:00:00,
2013-03-03 02:05:00,24.6,16.6,-100.00,WNW,302,0.0,0.0,71,-99.99,,,0.00,LWC V2.10 B1813,2013-03-03 07:05:00,
2013-03-03 02:10:00,24.6,16.6,-100.00,WNW,302,0.0,0.0,71,-99.99,,,0.00,LWC V2.10 B1813,2013-03-03 07:10:00,
2013-03-03 02:15:00,24.6,16.6,-100.00,WNW,302,0.0,0.0,71,-99.99,,,0.00,LWC V2.10 B1813,2013-03-03 07:15:00,
2013-03-03 02:20:00,24.4,16.7,-100.00,WNW,302,0.0,0.0,72,-99.99,,,0.00,LWC V2.10 B1813,2013-03-03 07:20:00,
2013-03-03 02:25:00,24.4,16.7,-100.00,WNW,302,0.0,0.0,72,-99.99,,,0.00,LWC V2.10 B1813,2013-03-03 07:25:00,
2013-03-03 02:30:00,24.4,17.0,-100.00,WNW,302,0.0,0.0,73,-99.99,,,0.00,LWC V2.10 B1813,2013-03-03 07:30:00,
2013-03-03 02:35:00,24.4,17.7,-100.00,WNW,302,0.0,0.0,75,-99.99,,,0.00,LWC V2.10 B1813,2013-03-03 07:35:00,
2013-03-03 02:40:00,24.4,17.7,-100.00,WNW,302,0.0,0.0,75,-99.99,,,0.00,LWC V2.10 B1813,2013-03-03 07:40:00,
2013-03-03 02:45:00,24.3,17.8,-100.00,WNW,302,0.0,0.0,76,-99.99,,,0.00,LWC V2.10 B1813,2013-03-03 07:45:00,
2013-03-03 02:50:00,24.3,18.1,-100.00,WNW,302,0.0,0.0,77,-99.99,,,0.00,LWC V2.10 B1813,2013-03-03 07:50:00,
2013-03-03 02:55:00,24.3,18.1,-100.00,WNW,302,0.0,0.0,77,-99.99,,,0.00,LWC V2.10 B1813,2013-03-03 07:55:00,
2013-03-03 03:00:00,24.1,17.9,-100.00,WNW,302,0.0,0.0,77,-99.99,,,0.00,LWC V2.10 B1813,2013-03-03 08:00:00,
2013-03-03 03:05:00,24.1,17.9,-100.00,WNW,302,0.0,0.0,77,-99.99,,,0.00,LWC V2.10 B1813,2013-03-03 08:05:00,
2013-03-03 03:10:00,23.9,18.1,-100.00,WNW,302,0.0,0.0,78,-99.99,,,0.00,LWC V2.10 B1813,2013-03-03 08:10:00,
2013-03-03 03:15:00,23.9,18.4,-100.00,WNW,302,0.0,0.0,79,-99.99,,,0.00,LWC V2.10 B1813,2013-03-03 08:15:00,
2013-03-03 03:20:00,23.9,18.4,-100.00,WNW,302,0.0,0.0,79,-99.99,,,0.00,LWC V2.10 B1813,2013-03-03 08:20:00,
2013-03-03 03:25:00,23.7,18.2,-100.00,WNW,302,0.0,0.0,79,-99.99,,,0.00,LWC V2.10 B1813,2013-03-03 08:25:00,
2013-03-03 03:30:00,23.7,18.2,-100.00,WNW,302,0.0,0.0,79,-99.99,,,0.00,LWC V2.10 B1813,2013-03-03 08:30:00,
2013-03-03 03:35:00,23.7,18.2,-100.00,WNW,302,0.0,0.0,79,-99.99,,,0.00,LWC V2.10 B1813,2013-03-03 08:35:00,
2013-03-03 03:40:00,23.7,17.3,-100.00,WNW,302,0.0,0.0,76,-99.99,,,0.00,LWC V2.10 B1813,2013-03-03 08:40:00,
2013-03-03 03:45:00,23.7,16.7,-100.00,WNW,302,0.0,0.0,74,-99.99,,,0.00,LWC V2.10 B1813,2013-03-03 08:45:00,
2013-03-03 03:50:00,23.5,16.5,-100.00,WNW,302,0.0,0.0,74,-99.99,,,0.00,LWC V2.10 B1813,2013-03-03 08:50:00,
2013-03-03 03:52:00,23.5,16.5,-100.00,WNW,302,0.0,0.0,74,-99.99,,,0.00,LWC V2.10 B1813,2013-03-03 08:52:00,
2013-03-03 03:57:00,23.5,16.5,-100.00,WNW,302,0.0,0.0,74,-99.99,,,0.00,LWC V2.10 B1813,2013-03-03 08:57:00,
2013-03-03 04:02:00,23.5,16.5,-100.00,WNW,302,0.0,0.0,74,-99.99,,,0.00,LWC V2.10 B1813,2013-03-03 09:02:00,
2013-03-03 04:07:00,23.5,16.8,-100.00,WNW,302,0.0,0.0,75,-99.99,,,0.00,LWC V2.10 B1813,2013-03-03 09:07:00,
2013-03-03 04:12:00,23.5,16.8,-100.00,WNW,302,0.0,0.0,75,-99.99,,,0.00,LWC V2.10 B1813,2013-03-03 09:12:00,
2013-03-03 04:17:00,23.7,17.0,-100.00,WNW,302,0.0,0.0,75,-99.99,,,0.00,LWC V2.10 B1813,2013-03-03 09:17:00,
2013-03-03 04:22:00,23.7,16.4,-100.00,WNW,302,0.0,0.0,73,-99.99,,,0.00,LWC V2.10 B1813,2013-03-03 09:22:00,
2013-03-03 04:27:00,23.7,16.4,-100.00,WNW,302,0.0,0.0,73,-99.99,,,0.00,LWC V2.10 B1813,2013-03-03 09:27:00,
2013-03-03 04:32:00,23.7,16.4,-100.00,WNW,302,0.0,0.0,73,-99.99,,,0.00,LWC V2.10 B1813,2013-03-03 09:32:00,
2013-03-03 04:37:00,23.7,16.7,-100.00,WNW,302,0.0,0.0,74,-99.99,,,0.00,LWC V2.10 B1813,2013-03-03 09:37:00,
2013-03-03 04:42:00,23.7,16.7,-100.00,WNW,302,0.0,0.0,74,-99.99,,,0.00,LWC V2.10 B1813,2013-03-03 09:42:00,
2013-03-03 04:47:00,23.5,16.8,-100.00,WNW,302,0.0,0.0,75,-99.99,,,0.00,LWC V2.10 B1813,2013-03-03 09:47:00,
2013-03-03 04:52:00,23.5,16.8,-100.00,WNW,302,0.0,0.0,75,-99.99,,,0.00,LWC V2.10 B1813,2013-03-03 09:52:00,
2013-03-03 04:57:00,23.5,17.1,-100.00,WNW,302,0.0,0.0,76,-99.99,,,0.00,LWC V2.10 B1813,2013-03-03 09:57:00,
2013-03-03 05:02:00,23.5,17.4,-100.00,WNW,302,0.0,0.0,77,-99.99,,,0.00,LWC V2.10 B1813,2013-03-03 10:02:00,
2013-03-03 05:07:00,23.4,17.2,-100.00,WNW,302,0.0,0.0,77,-99.99,,,0.00,LWC V2.10 B1813,2013-03-03 10:07:00,
2013-03-03 05:12:00,23.5,17.7,-100.00,WNW,302,0.0,0.0,78,-99.99,,,0.00,LWC V2.10 B1813,2013-03-03 10:12:00,
2013-03-03 05:17:00,23.5,17.7,-100.00,WNW,302,0.0,0.0,78,-99.99,,,0.00,LWC V2.10 B1813,2013-03-03 10:17:00,
2013-03-03 05:22:00,23.4,17.5,-100.00,WNW,302,0.0,0.0,78,-99.99,,,0.00,LWC V2.10 B1813,2013-03-03 10:22:00,
2013-03-03 05:27:00,23.5,17.7,-100.00,WNW,302,0.0,0.0,78,-99.99,,,0.00,LWC V2.10 B1813,2013-03-03 10:27:00,
2013-03-03 05:32:00,23.5,17.7,-100.00,WNW,302,0.0,0.0,78,-99.99,,,0.00,LWC V2.10 B1813,2013-03-03 10:32:00,
2013-03-03 05:37:00,23.5,18.0,-100.00,WNW,302,0.0,0.0,79,-99.99,,,0.00,LWC V2.10 B1813,2013-03-03 10:37:00,
2013-03-03 05:42:00,23.4,17.8,-100.00,WNW,302,0.0,0.0,79,-99.99,,,0.00,LWC V2.10 B1813,2013-03-03 10:42:00,
2013-03-03 05:47:00,23.5,17.7,-100.00,WNW,302,0.0,0.0,78,-99.99,,,0.00,LWC V2.10 B1813,2013-03-03 10:47:00,
2013-03-03 05:52:00,23.5,17.7,-100.00,WNW,302,0.0,0.0,78,-99.99,,,0.00,LWC V2.10 B1813,2013-03-03 10:52:00,
2013-03-03 05:57:00,23.5,17.4,-100.00,WNW,302,0.0,0.0,77,-99.99,,,0.00,LWC V2.10 B1813,2013-03-03 10:57:00,
2013-03-03 06:02:00,23.5,17.4,-100.00,WNW,302,0.0,0.0,77,-99.99,,,0.00,LWC V2.10 B1813,2013-03-03 11:02:00,
2013-03-03 06:07:00,23.5,16.8,-100.00,WNW,302,0.0,0.0,75,-99.99,,,0.00,LWC V2.10 B1813,2013-03-03 11:07:00,
2013-03-03 06:12:00,23.5,16.5,-100.00,WNW,302,0.0,0.0,74,-99.99,,,0.00,LWC V2.10 B1813,2013-03-03 11:12:00,
2013-03-03 06:17:00,23.5,16.2,-100.00,WNW,302,0.0,0.0,73,-99.99,,,0.00,LWC V2.10 B1813,2013-03-03 11:17:00,
2013-03-03 06:22:00,23.5,16.5,-100.00,WNW,302,0.0,0.0,74,-99.99,,,0.00,LWC V2.10 B1813,2013-03-03 11:22:00,
2013-03-03 06:27:00,23.5,16.2,-100.00,WNW,302,0.0,0.0,73,-99.99,,,0.00,LWC V2.10 B1813,2013-03-03 11:27:00,
2013-03-03 06:32:00,23.5,16.2,-100.00,WNW,302,0.0,0.0,73,-99.99,,,0.00,LWC V2.10 B1813,2013-03-03 11:32:00,
2013-03-03 06:37:00,23.5,16.2,-100.00,WNW,302,0.0,0.0,73,-99.99,,,0.00,LWC V2.10 B1813,2013-03-03 11:37:00,
2013-03-03 06:42:00,23.5,16.2,-100.00,WNW,302,0.0,0.0,73,-99.99,,,0.00,LWC V2.10 B1813,2013-03-03 11:42:00,
2013-03-03 06:48:00,23.5,16.2,-100.00,WNW,302,0.0,0.0,73,-99.99,,,0.00,LWC V2.10 B1813,2013-03-03 11:48:00,
2013-03-03 06:53:00,23.5,16.2,-100.00,WNW,302,0.0,0.0,73,-99.99,,,0.00,LWC V2.10 B1813,2013-03-03 11:53:00,
2013-03-03 06:58:00,23.5,16.2,-100.00,WNW,302,0.0,0.0,73,-99.99,,,0.00,LWC V2.10 B1813,2013-03-03 11:58:00,
2013-03-03 07:03:00,23.5,16.5,-100.00,WNW,302,0.0,0.0,74,-99.99,,,0.00,LWC V2.10 B1813,2013-03-03 12:03:00,
2013-03-03 07:08:00,23.5,16.5,-100.00,WNW,302,0.0,0.0,74,-99.99,,,0.00,LWC V2.10 B1813,2013-03-03 12:08:00,
2013-03-03 07:13:00,23.4,16.3,-100.00,WNW,302,0.0,0.0,74,-99.99,,,0.00,LWC V2.10 B1813,2013-03-03 12:13:00,
2013-03-03 07:18:00,23.5,16.5,-100.00,WNW,302,0.0,0.0,74,-99.99,,,0.00,LWC V2.10 B1813,2013-03-03 12:18:00,
2013-03-03 07:23:00,23.4,16.0,-100.00,WNW,302,0.0,0.0,73,-99.99,,,0.00,LWC V2.10 B1813,2013-03-03 12:23:00,
2013-03-03 07:28:00,23.4,16.3,-100.00,WNW,302,0.0,0.0,74,-99.99,,,0.00,LWC V2.10 B1813,2013-03-03 12:28:00,
2013-03-03 07:33:00,23.4,16.3,-100.00,WNW,302,0.0,0.0,74,-99.99,,,0.00,LWC V2.10 B1813,2013-03-03 12:33:00,
2013-03-03 07:38:00,23.5,16.5,-100.00,WNW,302,0.0,0.0,74,-99.99,,,0.00,LWC V2.10 B1813,2013-03-03 12:38:00,
2013-03-03 07:43:00,23.5,16.5,-100.00,WNW,302,0.0,0.0,74,-99.99,,,0.00,LWC V2.10 B1813,2013-03-03 12:43:00,
2013-03-03 07:48:00,23.5,16.5,-100.00,WNW,302,0.0,0.0,74,-99.99,,,0.00,LWC V2.10 B1813,2013-03-03 12:48:00,
2013-03-03 07:53:00,23.5,16.5,-100.00,WNW,302,0.0,0.0,74,-99.99,,,0.00,LWC V2.10 B1813,2013-03-03 12:53:00,
2013-03-03 07:58:00,23.5,16.8,-100.00,WNW,302,0.0,0.0,75,-99.99,,,0.00,LWC V2.10 B1813,2013-03-03 12:58:00,
2013-03-03 08:03:00,23.5,16.8,-100.00,WNW,302,0.0,0.0,75,-99.99,,,0.00,LWC V2.10 B1813,2013-03-03 13:03:00,
2013-03-03 08:08:00,23.5,16.5,-100.00,WNW,302,0.0,0.0,74,-99.99,,,0.00,LWC V2.10 B1813,2013-03-03 13:08:00,
2013-03-03 08:13:00,23.5,16.5,-100.00,WNW,302,0.0,0.0,74,-99.99,,,0.00,LWC V2.10 B1813,2013-03-03 13:13:00,
2013-03-03 08:18:00,23.7,17.0,-100.00,WNW,302,0.0,0.0,75,-99.99,,,0.00,LWC V2.10 B1813,2013-03-03 13:18:00,
2013-03-03 08:23:00,23.7,16.4,-100.00,WNW,302,0.0,0.0,73,-99.99,,,0.00,LWC V2.10 B1813,2013-03-03 13:23:00,
2013-03-03 08:28:00,23.7,16.0,-100.00,WNW,302,0.0,0.0,72,-99.99,,,0.00,LWC V2.10 B1813,2013-03-03 13:28:00,
2013-03-03 08:33:00,23.9,16.5,-100.00,WNW,302,0.0,0.0,73,-99.99,,,0.00,LWC V2.10 B1813,2013-03-03 13:33:00,
2013-03-03 08:38:00,23.7,15.4,-100.00,WNW,302,0.0,0.0,70,-99.99,,,0.00,LWC V2.10 B1813,2013-03-03 13:38:00,
2013-03-03 08:43:00,23.7,14.7,-100.00,WNW,302,0.0,0.0,68,-99.99,,,0.00,LWC V2.10 B1813,2013-03-03 13:43:00,
2013-03-03 08:48:00,23.9,14.2,-100.00,WNW,302,0.0,0.0,66,-99.99,,,0.00,LWC V2.10 B1813,2013-03-03 13:48:00,
2013-03-03 08:53:00,23.9,14.2,-100.00,WNW,302,0.0,0.0,66,-99.99,,,0.00,LWC V2.10 B1813,2013-03-03 13:53:00,
2013-03-03 08:58:00,23.7,13.7,-100.00,WNW,302,0.0,0.0,65,-99.99,,,0.00,LWC V2.10 B1813,2013-03-03 13:58:00,
2013-03-03 09:03:00,23.9,14.2,-100.00,WNW,302,0.0,0.0,66,-99.99,,,0.00,LWC V2.10 B1813,2013-03-03 14:03:00,
2013-03-03 09:08:00,24.1,14.0,-100.00,WNW,302,0.0,0.0,65,-99.99,,,0.00,LWC V2.10 B1813,2013-03-03 14:08:00,
2013-03-03 09:11:00,23.9,13.5,-100.00,WNW,302,0.0,0.0,64,-99.99,,,0.00,LWC V2.10 B1813,2013-03-03 14:11:00,
2013-03-03 09:16:00,23.5,12.5,-100.00,WNW,302,0.0,0.0,62,-99.99,,,0.00,LWC V2.10 B1813,2013-03-03 14:16:00,
2013-03-03 09:21:00,23.9,12.4,-100.00,WNW,302,0.0,0.0,61,-99.99,,,0.00,LWC V2.10 B1813,2013-03-03 14:21:00,
2013-03-03 09:26:00,24.1,12.6,-100.00,WNW,302,0.0,0.0,61,-99.99,,,0.00,LWC V2.10 B1813,2013-03-03 14:26:00,
2013-03-03 09:31:00,23.9,12.1,-100.00,WNW,302,0.0,0.0,60,-99.99,,,0.00,LWC V2.10 B1813,2013-03-03 14:31:00,
2013-03-03 09:36:00,24.1,12.2,-100.00,WNW,302,0.0,0.0,60,-99.99,,,0.00,LWC V2.10 B1813,2013-03-03 14:36:00,
2013-03-03 09:41:00,24.4,12.6,-100.00,WNW,302,0.0,0.0,60,-99.99,,,0.00,LWC V2.10 B1813,2013-03-03 14:41:00,
2013-03-03 09:46:00,23.7,11.9,-100.00,WNW,302,0.0,0.0,60,-99.99,,,0.00,LWC V2.10 B1813,2013-03-03 14:46:00,
2013-03-03 09:51:00,24.1,13.3,-100.00,WNW,302,0.0,0.0,63,-99.99,,,0.00,LWC V2.10 B1813,2013-03-03 14:51:00,
2013-03-03 09:56:00,24.1,13.7,-100.00,WNW,302,0.0,0.0,64,-99.99,,,0.00,LWC V2.10 B1813,2013-03-03 14:56:00,
2013-03-03 10:01:00,24.3,14.6,-100.00,WNW,302,0.0,0.0,66,-99.99,,,0.00,LWC V2.10 B1813,2013-03-03 15:01:00,
2013-03-03 10:06:00,24.3,14.9,-100.00,WNW,302,0.0,0.0,67,-99.99,,,0.00,LWC V2.10 B1813,2013-03-03 15:06:00,
2013-03-03 10:11:00,23.9,14.6,-100.00,WNW,302,0.0,0.0,67,-99.99,,,0.00,LWC V2.10 B1813,2013-03-03 15:11:00,
2013-03-03 10:16:00,23.9,13.9,-100.00,WNW,302,0.0,0.0,65,-99.99,,,0.00,LWC V2.10 B1813,2013-03-03 15:16:00,
2013-03-03 10:21:00,23.9,13.2,-100.00,WNW,302,0.0,0.0,63,-99.99,,,0.00,LWC V2.10 B1813,2013-03-03 15:21:00,
2013-03-03 10:26:00,24.1,13.0,-100.00,WNW,302,0.0,0.0,62,-99.99,,,0.00,LWC V2.10 B1813,2013-03-03 15:26:00,
2013-03-03 10:31:00,23.7,12.6,-100.00,WNW,302,0.0,0.0,62,-99.99,,,0.00,LWC V2.10 B1813,2013-03-03 15:31:00,
2013-03-03 10:36:00,23.7,12.3,-100.00,WNW,302,0.0,0.0,61,-99.99,,,0.00,LWC V2.10 B1813,2013-03-03 15:36:00,
2013-03-03 10:41:00,23.9,12.4,-100.00,WNW,302,0.0,0.0,61,-99.99,,,0.00,LWC V2.10 B1813,2013-03-03 15:41:00,
2013-03-03 10:46:00,23.7,11.9,-100.00,WNW,302,0.0,0.0,60,-99.99,,,0.00,LWC V2.10 B1813,2013-03-03 15:46:00,
2013-03-03 10:51:00,23.7,11.9,-100.00,WNW,302,0.0,0.0,60,-99.99,,,0.00,LWC V2.10 B1813,2013-03-03 15:51:00,
2013-03-03 10:56:00,24.3,12.4,-100.00,WNW,302,0.0,0.0,60,-99.99,,,0.00,LWC V2.10 B1813,2013-03-03 15:56:00,
2013-03-03 11:01:00,24.1,12.2,-100.00,WNW,302,0.0,0.0,60,-99.99,,,0.00,LWC V2.10 B1813,2013-03-03 16:01:00,
2013-03-03 11:06:00,23.7,11.1,-100.00,WNW,302,0.0,0.0,58,-99.99,,,0.00,LWC V2.10 B1813,2013-03-03 16:06:00,
2013-03-03 11:11:00,24.1,11.5,-100.00,WNW,302,0.0,0.0,58,-99.99,,,0.00,LWC V2.10 B1813,2013-03-03 16:11:00,
2013-03-03 11:16:00,24.8,12.5,-100.00,WNW,302,0.0,0.0,59,-99.99,,,0.00,LWC V2.10 B1813,2013-03-03 16:16:00,
2013-03-03 11:21:00,24.4,11.4,-100.00,WNW,302,0.0,0.0,57,-99.99,,,0.00,LWC V2.10 B1813,2013-03-03 16:21:00,
2013-03-03 11:26:00,24.4,11.4,-100.00,WNW,302,0.0,0.0,57,-99.99,,,0.00,LWC V2.10 B1813,2013-03-03 16:26:00,
2013-03-03 11:31:00,24.8,11.4,-100.00,WNW,302,0.0,0.0,56,-99.99,,,0.00,LWC V2.10 B1813,2013-03-03 16:31:00,
2013-03-03 11:36:00,24.8,10.1,-100.00,WNW,302,0.0,0.0,53,-99.99,,,0.00,LWC V2.10 B1813,2013-03-03 16:36:00,
2013-03-03 11:41:00,25.3,9.8,-100.00,WNW,302,0.0,0.0,51,-99.99,,,0.00,LWC V2.10 B1813,2013-03-03 16:41:00,
2013-03-03 11:46:00,25.9,9.8,-100.00,WNW,302,0.0,0.0,50,-99.99,,,0.00,LWC V2.10 B1813,2013-03-03 16:46:00,
2013-03-03 11:51:00,25.5,8.6,-100.00,WNW,302,0.0,0.0,48,-99.99,,,0.00,LWC V2.10 B1813,2013-03-03 16:51:00,
2013-03-03 11:56:00,25.2,7.8,-100.00,WNW,302,0.0,0.0,47,-99.99,,,0.00,LWC V2.10 B1813,2013-03-03 16:56:00,
2013-03-03 12:01:00,25.0,8.6,-100.00,WNW,302,0.0,0.0,49,-99.99,,,0.00,LWC V2.10 B1813,2013-03-03 17:01:00,
2013-03-03 12:06:00,26.4,9.9,-100.00,WNW,302,0.0,0.0,49,-99.99,,,0.00,LWC V2.10 B1813,2013-03-03 17:06:00,
2013-03-03 12:11:00,27.5,9.5,-100.00,WNW,302,0.0,0.0,46,-99.99,,,0.00,LWC V2.10 B1813,2013-03-03 17:11:00,
2013-03-03 12:16:00,27.9,8.8,-100.00,WNW,302,0.0,0.0,44,-99.99,,,0.00,LWC V2.10 B1813,2013-03-03 17:16:00,
2013-03-03 12:21:00,26.8,7.8,-100.00,WNW,302,0.0,0.0,44,-99.99,,,0.00,LWC V2.10 B1813,2013-03-03 17:21:00,
2013-03-03 12:27:00,26.1,7.2,-100.00,WNW,302,0.0,0.0,44,-99.99,,,0.00,LWC V2.10 B1813,2013-03-03 17:27:00,
2013-03-03 12:32:00,27.0,8.5,-100.00,WNW,302,0.0,0.0,45,-99.99,,,0.00,LWC V2.10 B1813,2013-03-03 17:32:00,
2013-03-03 12:37:00,26.6,8.2,-100.00,WNW,302,0.0,0.0,45,-99.99,,,0.00,LWC V2.10 B1813,2013-03-03 17:37:00,
2013-03-03 12:42:00,26.6,8.2,-100.00,WNW,302,0.0,0.0,45,-99.99,,,0.00,LWC V2.10 B1813,2013-03-03 17:42:00,
2013-03-03 12:47:00,27.5,8.5,-100.00,WNW,302,0.0,0.0,44,-99.99,,,0.00,LWC V2.10 B1813,2013-03-03 17:47:00,
2013-03-03 12:52:00,27.7,9.1,-100.00,WNW,302,0.0,0.0,45,-99.99,,,0.00,LWC V2.10 B1813,2013-03-03 17:52:00,
2013-03-03 12:57:00,28.0,9.5,-100.00,WNW,302,0.0,0.0,45,-99.99,,,0.00,LWC V2.10 B1813,2013-03-03 17:57:00,
2013-03-03 13:02:00,27.1,8.2,-100.00,WNW,302,0.0,0.0,44,-99.99,,,0.00,LWC V2.10 B1813,2013-03-03 18:02:00,
2013-03-03 13:07:00,27.1,10.1,-100.00,WNW,302,0.0,0.0,48,-99.99,,,0.00,LWC V2.10 B1813,2013-03-03 18:07:00,
2013-03-03 13:12:00,27.7,10.1,-100.00,WNW,302,0.0,0.0,47,-99.99,,,0.00,LWC V2.10 B1813,2013-03-03 18:12:00,
2013-03-03 13:17:00,27.9,9.8,-100.00,WNW,302,0.0,0.0,46,-99.99,,,0.00,LWC V2.10 B1813,2013-03-03 18:17:00,
2013-03-03 13:22:00,26.6,8.2,-100.00,WNW,302,0.0,0.0,45,-99.99,,,0.00,LWC V2.10 B1813,2013-03-03 18:22:00,
2013-03-03 13:27:00,27.3,10.2,-100.00,WNW,302,0.0,0.0,48,-99.99,,,0.00,LWC V2.10 B1813,2013-03-03 18:27:00,
2013-03-03 13:32:00,27.7,10.6,-100.00,WNW,302,0.0,0.0,48,-99.99,,,0.00,LWC V2.10 B1813,2013-03-03 18:32:00,
2013-03-03 13:37:00,27.5,9.9,-100.00,WNW,302,0.0,0.0,47,-99.99,,,0.00,LWC V2.10 B1813,2013-03-03 18:37:00,
2013-03-03 13:42:00,27.9,9.8,-100.00,WNW,302,0.0,0.0,46,-99.99,,,0.00,LWC V2.10 B1813,2013-03-03 18:42:00,
2013-03-03 13:47:00,28.8,10.6,-100.00,WNW,302,0.0,0.0,46,-99.99,,,0.00,LWC V2.10 B1813,2013-03-03 18:47:00,
2013-03-03 13:52:00,27.9,9.3,-100.00,WNW,302,0.0,0.0,45,-99.99,,,0.00,LWC V2.10 B1813,2013-03-03 18:52:00,
2013-03-03 13:57:00,28.4,9.8,-100.00,WNW,302,0.0,0.0,45,-99.99,,,0.00,LWC V2.10 B1813,2013-03-03 18:57:00,
2013-03-03 14:02:00,28.0,10.4,-100.00,WNW,302,0.0,0.0,47,-99.99,,,0.00,LWC V2.10 B1813,2013-03-03 19:02:00,
2013-03-03 14:07:00,27.9,9.8,-100.00,WNW,302,0.0,0.0,46,-99.99,,,0.00,LWC V2.10 B1813,2013-03-03 19:07:00,
2013-03-03 14:12:00,28.2,11.1,-100.00,WNW,302,0.0,0.0,48,-99.99,,,0.00,LWC V2.10 B1813,2013-03-03 19:12:00,
2013-03-03 14:17:00,28.2,10.1,-100.00,WNW,302,0.0,0.0,46,-99.99,,,0.00,LWC V2.10 B1813,2013-03-03 19:17:00,
2013-03-03 14:22:00,27.1,8.6,-100.00,WNW,302,0.0,0.0,45,-99.99,,,0.00,LWC V2.10 B1813,2013-03-03 19:22:00,
2013-03-03 14:27:00,27.7,10.1,-100.00,WNW,302,0.0,0.0,47,-99.99,,,0.00,LWC V2.10 B1813,2013-03-03 19:27:00,
2013-03-03 14:32:00,28.4,10.8,-100.00,WNW,302,0.0,0.0,47,-99.99,,,0.00,LWC V2.10 B1813,2013-03-03 19:32:00,
2013-03-03 14:37:00,28.9,10.8,-100.00,WNW,302,0.0,0.0,46,-99.99,,,0.00,LWC V2.10 B1813,2013-03-03 19:37:00,
2013-03-03 14:42:00,29.1,11.0,-100.00,WNW,302,0.0,0.0,46,-99.99,,,0.00,LWC V2.10 B1813,2013-03-03 19:42:00,
2013-03-03 14:47:00,28.8,11.1,-100.00,WNW,302,0.0,0.0,47,-99.99,,,0.00,LWC V2.10 B1813,2013-03-03 19:47:00,
2013-03-03 14:52:00,28.6,10.0,-100.00,WNW,302,0.0,0.0,45,-99.99,,,0.00,LWC V2.10 B1813,2013-03-03 19:52:00,
2013-03-03 14:57:00,28.9,10.8,-100.00,WNW,302,0.0,0.0,46,-99.99,,,0.00,LWC V2.10 B1813,2013-03-03 19:57:00,
2013-03-03 15:02:00,29.3,11.6,-100.00,WNW,302,0.0,0.0,47,-99.99,,,0.00,LWC V2.10 B1813,2013-03-03 20:02:00,
2013-03-03 15:07:00,29.5,12.2,-100.00,WNW,302,0.0,0.0,48,-99.99,,,0.00,LWC V2.10 B1813,2013-03-03 20:07:00,
2013-03-03 15:12:00,30.2,14.3,-100.00,WNW,302,0.0,0.0,51,-99.99,,,0.00,LWC V2.10 B1813,2013-03-03 20:12:00,
2013-03-03 15:17:00,29.3,11.6,-100.00,WNW,302,0.0,0.0,47,-99.99,,,0.00,LWC V2.10 B1813,2013-03-03 20:17:00,
2013-03-03 15:22:00,28.6,12.8,-100.00,WNW,302,0.0,0.0,51,-99.99,,,0.00,LWC V2.10 B1813,2013-03-03 20:22:00,
2013-03-03 15:27:00,28.4,12.2,-100.00,WNW,302,0.0,0.0,50,-99.99,,,0.00,LWC V2.10 B1813,2013-03-03 20:27:00,
2013-03-03 15:32:00,28.8,12.5,-100.00,WNW,302,0.0,0.0,50,-99.99,,,0.00,LWC V2.10 B1813,2013-03-03 20:32:00,
2013-03-03 15:37:00,28.9,11.7,-100.00,WNW,302,0.0,0.0,48,-99.99,,,0.00,LWC V2.10 B1813,2013-03-03 20:37:00,
2013-03-03 15:42:00,29.3,11.1,-100.00,WNW,302,0.0,0.0,46,-99.99,,,0.00,LWC V2.10 B1813,2013-03-03 20:42:00,
2013-03-03 15:47:00,29.3,12.1,-100.00,WNW,302,0.0,0.0,48,-99.99,,,0.00,LWC V2.10 B1813,2013-03-03 20:47:00,
2013-03-03 15:52:00,29.3,11.6,-100.00,WNW,302,0.0,0.0,47,-99.99,,,0.00,LWC V2.10 B1813,2013-03-03 20:52:00,
2013-03-03 15:57:00,28.6,10.5,-100.00,WNW,301,0.0,0.0,46,-99.99,,,0.00,LWC V2.10 B1813,2013-03-03 20:57:00,
2013-03-03 16:02:00,28.9,12.2,-100.00,WNW,302,0.0,0.0,49,-99.99,,,0.00,LWC V2.10 B1813,2013-03-03 21:02:00,
2013-03-03 16:07:00,29.3,11.6,-100.00,WNW,302,0.0,0.0,47,-99.99,,,0.00,LWC V2.10 B1813,2013-03-03 21:07:00,
2013-03-03 16:12:00,28.8,9.6,-100.00,WNW,302,0.0,0.0,44,-99.99,,,0.00,LWC V2.10 B1813,2013-03-03 21:12:00,
2013-03-03 16:17:00,28.8,10.1,-100.00,WNW,302,0.0,0.0,45,-99.99,,,0.00,LWC V2.10 B1813,2013-03-03 21:17:00,
2013-03-03 16:22:00,29.1,10.5,-100.00,WNW,302,0.0,0.0,45,-99.99,,,0.00,LWC V2.10 B1813,2013-03-03 21:22:00,
2013-03-03 16:27:00,29.5,10.8,-100.00,WNW,301,0.0,0.0,45,-99.99,,,0.00,LWC V2.10 B1813,2013-03-03 21:27:00,
2013-03-03 16:32:00,29.1,10.0,-100.00,WNW,301,0.0,0.0,44,-99.99,,,0.00,LWC V2.10 B1813,2013-03-03 21:32:00,
2013-03-03 16:37:00,29.3,10.6,-100.00,WNW,301,0.0,0.0,45,-99.99,,,0.00,LWC V2.10 B1813,2013-03-03 21:37:00,
2013-03-03 16:42:00,28.9,10.3,-100.00,WNW,301,0.0,0.0,45,-99.99,,,0.00,LWC V2.10 B1813,2013-03-03 21:42:00,
2013-03-03 16:47:00,29.3,10.1,-100.00,WNW,301,0.0,0.0,44,-99.99,,,0.00,LWC V2.10 B1813,2013-03-03 21:47:00,
2013-03-03 16:52:00,29.1,9.4,-100.00,WNW,301,0.0,0.0,43,-99.99,,,0.00,LWC V2.10 B1813,2013-03-03 21:52:00,
2013-03-03 16:57:00,29.1,9.4,-100.00,WNW,301,0.0,0.0,43,-99.99,,,0.00,LWC V2.10 B1813,2013-03-03 21:57:00,
2013-03-03 17:02:00,28.8,8.1,-100.00,WNW,301,0.0,0.0,41,-99.99,,,0.00,LWC V2.10 B1813,2013-03-03 22:02:00,
2013-03-03 17:07:00,29.1,8.9,-100.00,WNW,301,0.0,0.0,42,-99.99,,,0.00,LWC V2.10 B1813,2013-03-03 22:07:00,
2013-03-03 17:12:00,29.5,9.8,-100.00,WNW,301,0.0,0.0,43,-99.99,,,0.00,LWC V2.10 B1813,2013-03-03 22:12:00,
2013-03-03 17:17:00,29.3,9.1,-100.00,WNW,301,0.0,0.0,42,-99.99,,,0.00,LWC V2.10 B1813,2013-03-03 22:17:00,
2013-03-03 17:22:00,28.9,8.2,-100.00,WNW,301,0.0,0.0,41,-99.99,,,0.00,LWC V2.10 B1813,2013-03-03 22:22:00,
2013-03-03 17:27:00,29.3,9.1,-100.00,WNW,301,0.0,0.0,42,-99.99,,,0.00,LWC V2.10 B1813,2013-03-03 22:27:00,
2013-03-03 17:33:00,29.3,8.6,-100.00,WNW,301,0.0,0.0,41,-99.99,,,0.00,LWC V2.10 B1813,2013-03-03 22:33:00,
2013-03-03 17:38:00,29.3,9.1,-100.00,WNW,301,0.0,0.0,42,-99.99,,,0.00,LWC V2.10 B1813,2013-03-03 22:38:00,
2013-03-03 17:43:00,29.1,8.4,-100.00,WNW,301,0.0,0.0,41,-99.99,,,0.00,LWC V2.10 B1813,2013-03-03 22:43:00,
2013-03-03 17:48:00,28.8,8.1,-100.00,WNW,301,0.0,0.0,41,-99.99,,,0.00,LWC V2.10 B1813,2013-03-03 22:48:00,
2013-03-03 17:53:00,28.8,8.1,-100.00,WNW,301,0.0,0.0,41,-99.99,,,0.00,LWC V2.10 B1813,2013-03-03 22:53:00,
2013-03-03 17:58:00,28.6,8.4,-100.00,WNW,301,0.0,0.0,42,-99.99,,,0.00,LWC V2.10 B1813,2013-03-03 22:58:00,
2013-03-03 18:03:00,28.6,8.4,-100.00,WNW,301,0.0,0.0,42,-99.99,,,0.00,LWC V2.10 B1813,2013-03-03 23:03:00,
2013-03-03 18:08:00,28.4,8.3,-100.00,WNW,301,0.0,0.0,42,-99.99,,,0.00,LWC V2.10 B1813,2013-03-03 23:08:00,
2013-03-03 18:13:00,28.2,8.1,-100.00,WNW,301,0.0,0.0,42,-99.99,,,0.00,LWC V2.10 B1813,2013-03-03 23:13:00,
2013-03-03 18:18:00,27.9,8.3,-100.00,WNW,301,0.0,0.0,43,-99.99,,,0.00,LWC V2.10 B1813,2013-03-03 23:18:00,
2013-03-03 18:23:00,28.0,8.5,-100.00,WNW,301,0.0,0.0,43,-99.99,,,0.00,LWC V2.10 B1813,2013-03-03 23:23:00,
2013-03-03 18:28:00,28.0,7.9,-100.00,WNW,301,0.0,0.0,42,-99.99,,,0.00,LWC V2.10 B1813,2013-03-03 23:28:00,
2013-03-03 18:33:00,27.9,8.3,-100.00,WNW,301,0.0,0.0,43,-99.99,,,0.00,LWC V2.10 B1813,2013-03-03 23:33:00,
2013-03-03 18:38:00,27.7,8.6,-100.00,WNW,301,0.0,0.0,44,-99.99,,,0.00,LWC V2.10 B1813,2013-03-03 23:38:00,
2013-03-03 18:43:00,27.9,8.3,-100.00,WNW,301,0.0,0.0,43,-99.99,,,0.00,LWC V2.10 B1813,2013-03-03 23:43:00,
2013-03-03 18:48:00,27.7,8.1,-100.00,WNW,301,0.0,0.0,43,-99.99,,,0.00,LWC V2.10 B1813,2013-03-03 23:48:00,
2013-03-03 18:53:00,27.7,8.1,-100.00,WNW,301,0.0,0.0,43,-99.99,,,0.00,LWC V2.10 B1813,2013-03-03 23:53:00,
2013-03-03 18:58:00,27.7,8.1,-100.00,WNW,301,0.0,0.0,43,-99.99,,,0.00,LWC V2.10 B1813,2013-03-03 23:58:00,
2013-03-03 19:03:00,27.7,8.1,-100.00,WNW,301,0.0,0.0,43,-99.99,,,0.00,LWC V2.10 B1813,2013-03-04 00:03:00,
2013-03-03 19:08:00,27.9,8.3,-100.00,WNW,301,0.0,0.0,43,-99.99,,,0.00,LWC V2.10 B1813,2013-03-04 00:08:00,
2013-03-03 19:13:00,27.7,8.1,-100.00,WNW,301,0.0,0.0,43,-99.99,,,0.00,LWC V2.10 B1813,2013-03-04 00:13:00,
2013-03-03 19:18:00,27.9,8.3,-100.00,WNW,301,0.0,0.0,43,-99.99,,,0.00,LWC V2.10 B1813,2013-03-04 00:18:00,
2013-03-03 19:23:00,27.7,8.1,-100.00,WNW,301,0.0,0.0,43,-99.99,,,0.00,LWC V2.10 B1813,2013-03-04 00:23:00,
2013-03-03 19:28:00,27.7,8.6,-100.00,WNW,301,0.0,0.0,44,-99.99,,,0.00,LWC V2.10 B1813,2013-03-04 00:28:00,
2013-03-03 19:33:00,27.7,8.6,-100.00,WNW,301,0.0,0.0,44,-99.99,,,0.00,LWC V2.10 B1813,2013-03-04 00:33:00,
2013-03-03 19:38:00,27.5,9.0,-100.00,WNW,301,0.0,0.0,45,-99.99,,,0.00,LWC V2.10 B1813,2013-03-04 00:38:00,
2013-03-03 19:43:00,27.1,8.6,-100.00,WNW,301,0.0,0.0,45,-99.99,,,0.00,LWC V2.10 B1813,2013-03-04 00:43:00,
2013-03-03 19:48:00,27.1,8.6,-100.00,WNW,301,0.0,0.0,45,-99.99,,,0.00,LWC V2.10 B1813,2013-03-04 00:48:00,
2013-03-03 19:53:00,27.0,8.5,-100.00,WNW,301,0.0,0.0,45,-99.99,,,0.00,LWC V2.10 B1813,2013-03-04 00:53:00,
2013-03-03 19:58:00,27.0,9.0,-100.00,WNW,301,0.0,0.0,46,-99.99,,,0.00,LWC V2.10 B1813,2013-03-04 00:58:00,
2013-03-03 20:03:00,26.8,8.8,-100.00,WNW,301,0.0,0.0,46,-99.99,,,0.00,LWC V2.10 B1813,2013-03-04 01:03:00,
2013-03-03 20:08:00,27.0,9.0,-100.00,WNW,301,0.0,0.0,46,-99.99,,,0.00,LWC V2.10 B1813,2013-03-04 01:08:00,
2013-03-03 20:13:00,27.0,8.5,-100.00,WNW,301,0.0,0.0,45,-99.99,,,0.00,LWC V2.10 B1813,2013-03-04 01:13:00,
2013-03-03 20:18:00,27.0,9.0,-100.00,WNW,301,0.0,0.0,46,-99.99,,,0.00,LWC V2.10 B1813,2013-03-04 01:18:00,
2013-03-03 20:23:00,26.4,9.9,-100.00,WNW,301,0.0,0.0,49,-99.99,,,0.00,LWC V2.10 B1813,2013-03-04 01:23:00,
2013-03-03 20:28:00,25.9,10.3,-100.00,WNW,301,0.0,0.0,51,-99.99,,,0.00,LWC V2.10 B1813,2013-03-04 01:28:00,
2013-03-03 20:33:00,26.2,10.2,-100.00,WNW,301,0.0,0.0,50,-99.99,,,0.00,LWC V2.10 B1813,2013-03-04 01:33:00,
2013-03-03 20:38:00,26.4,9.9,-100.00,WNW,301,0.0,0.0,49,-99.99,,,0.00,LWC V2.10 B1813,2013-03-04 01:38:00,
2013-03-03 20:43:00,26.4,9.4,-100.00,WNW,301,0.0,0.0,48,-99.99,,,0.00,LWC V2.10 B1813,2013-03-04 01:43:00,
2013-03-03 20:48:00,25.9,10.7,-100.00,WNW,301,0.0,0.0,52,-99.99,,,0.00,LWC V2.10 B1813,2013-03-04 01:48:00,
2013-03-03 20:53:00,25.5,10.4,-100.00,WNW,301,0.0,0.0,52,-99.99,,,0.00,LWC V2.10 B1813,2013-03-04 01:53:00,
2013-03-03 20:58:00,25.3,10.6,-100.00,WNW,301,0.0,0.0,53,-99.99,,,0.00,LWC V2.10 B1813,2013-03-04 01:58:00,
2013-03-03 21:03:00,25.2,10.5,-100.00,WNW,301,0.0,0.0,53,-99.99,,,0.00,LWC V2.10 B1813,2013-03-04 02:03:00,
2013-03-03 21:08:00,24.8,10.5,-100.00,WNW,301,0.0,0.0,54,-99.99,,,0.00,LWC V2.10 B1813,2013-03-04 02:08:00,
2013-03-03 21:13:00,24.4,10.2,-100.00,WNW,301,0.0,0.0,54,-99.99,,,0.00,LWC V2.10 B1813,2013-03-04 02:13:00,
2013-03-03 21:18:00,24.4,10.2,-100.00,WNW,301,0.0,0.0,54,-99.99,,,0.00,LWC V2.10 B1813,2013-03-04 02:18:00,
2013-03-03 21:23:00,24.4,10.6,-100.00,WNW,301,0.0,0.0,55,-99.99,,,0.00,LWC V2.10 B1813,2013-03-04 02:23:00,
2013-03-03 21:28:00,24.3,10.9,-100.00,WNW,301,0.0,0.0,56,-99.99,,,0.00,LWC V2.10 B1813,2013-03-04 02:28:00,
2013-03-03 21:33:00,24.4,11.0,-100.00,WNW,301,0.0,0.0,56,-99.99,,,0.00,LWC V2.10 B1813,2013-03-04 02:33:00,
2013-03-03 21:38:00,24.6,11.6,-100.00,WNW,301,0.0,0.0,57,-99.99,,,0.00,LWC V2.10 B1813,2013-03-04 02:38:00,
2013-03-03 21:43:00,24.3,11.6,-100.00,WNW,301,0.0,0.0,58,-99.99,,,0.00,LWC V2.10 B1813,2013-03-04 02:43:00,
2013-03-03 21:48:00,24.4,12.6,-100.00,WNW,301,0.0,0.0,60,-99.99,,,0.00,LWC V2.10 B1813,2013-03-04 02:48:00,
2013-03-03 21:53:00,24.4,12.6,-100.00,WNW,301,0.0,0.0,60,-99.99,,,0.00,LWC V2.10 B1813,2013-03-04 02:53:00,
2013-03-03 21:58:00,24.4,12.2,-100.00,WNW,301,0.0,0.0,59,-99.99,,,0.00,LWC V2.10 B1813,2013-03-04 02:58:00,
2013-03-03 22:03:00,24.4,11.8,-100.00,WNW,301,0.0,0.0,58,-99.99,,,0.00,LWC V2.10 B1813,2013-03-04 03:03:00,
2013-03-03 22:08:00,24.8,12.9,-100.00,WNW,301,0.0,0.0,60,-99.99,,,0.00,LWC V2.10 B1813,2013-03-04 03:08:00,
2013-03-03 22:13:00,24.8,12.5,-100.00,WNW,301,0.0,0.0,59,-99.99,,,0.00,LWC V2.10 B1813,2013-03-04 03:13:00,
2013-03-03 22:18:00,25.0,12.3,-100.00,WNW,301,0.0,0.0,58,-99.99,,,0.00,LWC V2.10 B1813,2013-03-04 03:18:00,
2013-03-03 22:23:00,25.0,11.9,-100.00,WNW,301,0.0,0.0,57,-99.99,,,0.00,LWC V2.10 B1813,2013-03-04 03:23:00,
2013-03-03 22:28:00,25.2,12.9,-100.00,WNW,301,0.0,0.0,59,-99.99,,,0.00,LWC V2.10 B1813,2013-03-04 03:28:00,
2013-03-03 22:33:00,24.8,12.9,-100.00,WNW,301,0.0,0.0,60,-99.99,,,0.00,LWC V2.10 B1813,2013-03-04 03:33:00,
2013-03-03 22:38:00,24.8,12.1,-100.00,WNW,301,0.0,0.0,58,-99.99,,,0.00,LWC V2.10 B1813,2013-03-04 03:38:00,
2013-03-03 22:43:00,25.0,11.9,-100.00,WNW,301,0.0,0.0,57,-99.99,,,0.00,LWC V2.10 B1813,2013-03-04 03:43:00,
2013-03-03 22:48:00,24.8,12.1,-100.00,WNW,301,0.0,0.0,58,-99.99,,,0.00,LWC V2.10 B1813,2013-03-04 03:48:00,
2013-03-03 22:53:00,24.6,12.4,-100.00,WNW,301,0.0,0.0,59,-99.99,,,0.00,LWC V2.10 B1813,2013-03-04 03:53:00,
2013-03-03 22:58:00,24.4,11.4,-100.00,WNW,301,0.0,0.0,57,-99.99,,,0.00,LWC V2.10 B1813,2013-03-04 03:58:00,
2013-03-03 23:03:00,24.6,11.2,-100.00,WNW,301,0.0,0.0,56,-99.99,,,0.00,LWC V2.10 B1813,2013-03-04 04:03:00,
2013-03-03 23:08:00,24.6,11.2,-100.00,WNW,301,0.0,0.0,56,-99.99,,,0.00,LWC V2.10 B1813,2013-03-04 04:08:00,
2013-03-03 23:13:00,24.6,11.2,-100.00,WNW,301,0.0,0.0,56,-99.99,,,0.00,LWC V2.10 B1813,2013-03-04 04:13:00,
2013-03-03 23:18:00,24.4,11.0,-100.00,WNW,301,0.0,0.0,56,-99.99,,,0.00,LWC V2.10 B1813,2013-03-04 04:18:00,
2013-03-03 23:23:00,24.4,10.6,-100.00,WNW,301,0.0,0.0,55,-99.99,,,0.00,LWC V2.10 B1813,2013-03-04 04:23:00,
2013-03-03 23:28:00,24.1,10.7,-100.00,WNW,301,0.0,0.0,56,-99.99,,,0.00,LWC V2.10 B1813,2013-03-04 04:28:00,
2013-03-03 23:33:00,23.9,10.1,-100.00,WNW,301,0.0,0.0,55,-99.99,,,0.00,LWC V2.10 B1813,2013-03-04 04:33:00,
2013-03-03 23:38:00,23.7,10.3,-100.00,WNW,301,0.0,0.0,56,-99.99,,,0.00,LWC V2.10 B1813,2013-03-04 04:38:00,
2013-03-03 23:43:00,24.1,11.1,-100.00,WNW,301,0.0,0.0,57,-99.99,,,0.00,LWC V2.10 B1813,2013-03-04 04:43:00,
2013-03-03 23:48:00,24.3,10.9,-100.00,WNW,301,0.0,0.0,56,-99.99,,,0.00,LWC V2.10 B1813,2013-03-04 04:48:00,
2013-03-03 23:53:00,24.1,10.7,-100.00,WNW,301,0.0,0.0,56,-99.99,,,0.00,LWC V2.10 B1813,2013-03-04 04:53:00,
2013-03-03 23:58:00,23.9,10.1,-100.00,WNW,301,0.0,0.0,55,-99.99,,,0.00,LWC V2.10 B1813,2013-03-04 04:58:00,